createdAt,value
2024-05-09T00:00:47.171Z,30.63
2024-05-09T00:03:16.061Z,32.67
2024-05-09T00:05:45.124Z,32.83
2024-05-09T00:08:13.841Z,33.20
2024-05-09T00:10:42.230Z,34.40
2024-05-09T00:13:11.611Z,32.17
2024-05-09T00:15:42.006Z,30.33
2024-05-09T00:18:10.584Z,29.60
2024-05-09T00:20:41.036Z,32.00
2024-05-09T00:23:10.125Z,36.47
2024-05-09T00:25:38.383Z,34.27
2024-05-09T00:28:07.542Z,33.20
2024-05-09T00:30:37.268Z,28.87
2024-05-09T00:33:09.819Z,28.93
2024-05-09T00:35:39.427Z,29.53
2024-05-09T00:38:08.001Z,32.90
2024-05-09T00:40:41.137Z,29.67
2024-05-09T00:43:12.610Z,29.17
2024-05-09T00:45:42.183Z,35.63
2024-05-09T00:48:16.221Z,34.30
2024-05-09T00:50:47.804Z,30.40
2024-05-09T00:53:17.077Z,26.40
2024-05-09T00:55:46.062Z,28.90
2024-05-09T00:58:16.249Z,27.90
2024-05-09T01:00:44.876Z,28.07
2024-05-09T01:03:15.501Z,29.03
2024-05-09T01:05:44.946Z,29.40
2024-05-09T01:08:14.112Z,31.17
2024-05-09T01:10:45.194Z,28.53
2024-05-09T01:13:15.594Z,32.33
2024-05-09T01:15:43.985Z,31.57
2024-05-09T01:18:13.770Z,29.73
2024-05-09T01:20:45.521Z,27.40
2024-05-09T01:23:16.697Z,26.33
2024-05-09T01:25:46.208Z,28.67
2024-05-09T01:28:15.589Z,32.70
2024-05-09T01:30:43.939Z,32.17
2024-05-09T01:33:13.068Z,34.80
2024-05-09T01:35:42.978Z,33.63
2024-05-09T01:38:12.424Z,36.73
2024-05-09T01:40:43.232Z,34.57
2024-05-09T01:43:12.367Z,34.07
2024-05-09T01:45:41.445Z,30.60
2024-05-09T01:48:11.448Z,31.10
2024-05-09T01:50:42.495Z,32.13
2024-05-09T01:53:12.493Z,32.87
2024-05-09T01:55:43.526Z,29.40
2024-05-09T01:58:12.011Z,32.93
2024-05-09T02:00:42.696Z,29.83
2024-05-09T02:03:15.503Z,33.97
2024-05-09T02:05:46.866Z,31.77
2024-05-09T02:08:16.848Z,35.43
2024-05-09T02:10:48.493Z,30.27
2024-05-09T02:13:17.475Z,30.40
2024-05-09T02:15:46.094Z,33.83
2024-05-09T02:18:14.706Z,33.23
2024-05-09T02:20:43.840Z,31.13
2024-05-09T02:23:13.142Z,32.00
2024-05-09T02:25:42.464Z,30.00
2024-05-09T02:28:13.125Z,31.67
2024-05-09T02:30:42.822Z,33.70
2024-05-09T02:33:13.511Z,33.07
2024-05-09T02:35:44.014Z,33.50
2024-05-09T02:38:10.977Z,34.97
2024-05-09T02:40:40.346Z,29.57
2024-05-09T02:43:08.304Z,31.13
2024-05-09T02:45:39.984Z,29.53
2024-05-09T02:48:11.878Z,31.57
2024-05-09T02:50:40.419Z,34.90
2024-05-09T02:53:09.899Z,32.83
2024-05-09T02:55:36.694Z,29.27
2024-05-09T02:58:05.262Z,28.80
2024-05-09T03:00:38.291Z,31.90
2024-05-09T03:03:14.140Z,33.57
2024-05-09T03:05:42.266Z,33.30
2024-05-09T03:08:10.961Z,29.83
2024-05-09T03:10:38.912Z,34.00
2024-05-09T03:13:09.219Z,31.13
2024-05-09T03:15:35.729Z,32.63
2024-05-09T03:18:04.918Z,31.30
2024-05-09T03:20:35.505Z,32.13
2024-05-09T03:23:05.828Z,33.97
2024-05-09T03:25:32.919Z,34.90
2024-05-09T03:28:01.362Z,29.70
2024-05-09T03:30:36.095Z,31.93
2024-05-09T03:33:11.771Z,34.07
2024-05-09T03:35:40.530Z,28.67
2024-05-09T03:38:09.054Z,32.20
2024-05-09T03:40:37.558Z,29.37
2024-05-09T03:43:06.234Z,30.23
2024-05-09T03:45:32.651Z,29.60
2024-05-09T03:48:01.025Z,33.07
2024-05-09T03:50:33.819Z,27.93
2024-05-09T03:53:06.567Z,32.37
2024-05-09T03:55:32.953Z,30.07
2024-05-09T03:58:01.386Z,33.60
2024-05-09T04:00:35.527Z,28.93
2024-05-09T04:03:09.715Z,31.80
2024-05-09T04:05:38.871Z,32.13
2024-05-09T04:08:09.765Z,33.57
2024-05-09T04:10:36.188Z,30.60
2024-05-09T04:13:04.616Z,30.33
2024-05-09T04:15:31.074Z,30.67
2024-05-09T04:18:00.027Z,34.40
2024-05-09T04:22:57.935Z,37.70
2024-05-09T04:25:26.252Z,38.33
2024-05-09T04:27:55.286Z,42.67
2024-05-09T04:30:30.903Z,34.47
2024-05-09T04:33:06.426Z,35.23
2024-05-09T04:35:33.595Z,36.53
2024-05-09T04:38:02.025Z,37.60
2024-05-09T04:40:34.323Z,41.37
2024-05-09T04:43:05.147Z,38.10
2024-05-09T04:45:31.662Z,40.13
2024-05-09T04:48:00.386Z,41.90
2024-05-09T04:50:35.551Z,41.07
2024-05-09T04:53:07.479Z,36.97
2024-05-09T04:55:37.194Z,40.30
2024-05-09T04:58:06.012Z,38.10
2024-05-09T05:00:36.830Z,36.57
2024-05-09T05:03:08.696Z,34.93
2024-05-09T05:05:39.508Z,33.53
2024-05-09T05:08:09.747Z,35.70
2024-05-09T05:10:38.259Z,35.13
2024-05-09T05:13:20.854Z,30.37
2024-05-09T05:15:49.565Z,30.30
2024-05-09T05:18:18.777Z,32.53
2024-05-09T05:20:45.409Z,32.83
2024-05-09T05:23:15.131Z,34.90
2024-05-09T05:25:44.014Z,31.53
2024-05-09T05:28:12.403Z,34.37
2024-05-09T05:30:41.429Z,35.63
2024-05-09T05:33:12.508Z,31.67
2024-05-09T05:35:39.299Z,32.37
2024-05-09T05:38:08.280Z,30.27
2024-05-09T05:40:38.151Z,35.43
2024-05-09T05:43:10.808Z,37.83
2024-05-09T05:45:39.884Z,37.70
2024-05-09T05:48:07.269Z,35.33
2024-05-09T05:50:37.976Z,36.37
2024-05-09T05:53:06.193Z,34.23
2024-05-09T05:55:34.734Z,30.73
2024-05-09T05:58:01.346Z,32.17
2024-05-09T06:00:38.339Z,28.13
2024-05-09T06:03:07.230Z,29.50
2024-05-09T06:05:35.890Z,27.20
2024-05-09T06:08:02.354Z,24.53
2024-05-09T06:10:37.803Z,25.53
2024-05-09T06:13:06.742Z,26.47
2024-05-09T06:15:37.622Z,27.20
2024-05-09T06:18:05.082Z,27.40
2024-05-09T06:20:36.875Z,24.97
2024-05-09T06:23:05.344Z,29.27
2024-05-09T06:25:33.740Z,29.43
2024-05-09T06:28:00.428Z,26.50
2024-05-09T06:30:37.899Z,38.53
2024-05-09T06:33:10.614Z,28.97
2024-05-09T06:35:42.768Z,28.93
2024-05-09T06:38:09.927Z,32.43
2024-05-09T06:40:42.204Z,32.80
2024-05-09T06:43:10.857Z,33.27
2024-05-09T06:45:39.347Z,30.13
2024-05-09T06:48:09.240Z,33.83
2024-05-09T06:50:39.434Z,35.73
2024-05-09T06:53:06.570Z,32.47
2024-05-09T06:55:35.274Z,32.13
2024-05-09T06:58:01.741Z,32.23
2024-05-09T07:00:37.372Z,30.77
2024-05-09T07:03:10.120Z,31.43
2024-05-09T07:05:39.138Z,34.00
2024-05-09T07:08:06.363Z,33.83
2024-05-09T07:10:36.296Z,33.43
2024-05-09T07:13:07.578Z,32.23
2024-05-09T07:15:35.882Z,33.63
2024-05-09T07:18:10.275Z,38.07
2024-05-09T07:20:38.825Z,33.53
2024-05-09T07:23:05.297Z,37.63
2024-05-09T07:25:33.626Z,39.30
2024-05-09T07:27:59.976Z,38.10
2024-05-09T07:30:33.423Z,39.07
2024-05-09T07:33:01.677Z,41.27
2024-05-09T07:35:33.204Z,40.90
2024-05-09T07:37:59.666Z,39.63
2024-05-09T07:40:34.813Z,43.57
2024-05-09T07:43:03.266Z,37.93
2024-05-09T07:45:48.137Z,39.57
2024-05-09T07:52:37.178Z,40.47
2024-05-09T07:53:44.658Z,41.67
2024-05-09T07:56:17.566Z,46.50
2024-05-09T07:58:45.660Z,34.87
2024-05-09T08:01:13.976Z,35.97
2024-05-09T08:03:40.545Z,42.03
2024-05-09T08:06:10.994Z,33.93
2024-05-09T08:08:37.334Z,37.77
2024-05-09T08:11:07.537Z,37.13
2024-05-09T08:13:33.897Z,32.03
2024-05-09T08:16:02.322Z,31.90
2024-05-09T08:18:28.924Z,31.50
2024-05-09T08:20:57.426Z,32.73
2024-05-09T08:23:25.872Z,30.07
2024-05-09T08:25:54.281Z,34.80
2024-05-09T08:28:20.734Z,29.57
2024-05-09T08:30:49.391Z,28.60
2024-05-09T08:33:17.982Z,27.57
2024-05-09T08:35:46.458Z,31.93
2024-05-09T08:38:12.944Z,28.37
2024-05-09T08:40:43.520Z,29.23
2024-05-09T08:43:11.889Z,34.80
2024-05-09T08:45:42.119Z,31.03
2024-05-09T08:48:09.740Z,31.30
2024-05-09T08:50:39.766Z,30.47
2024-05-09T08:53:06.729Z,30.53
2024-05-09T08:55:38.185Z,29.93
2024-05-09T08:58:12.399Z,27.87
2024-05-09T09:00:40.181Z,30.70
2024-05-09T09:03:11.312Z,30.33
2024-05-09T09:05:41.897Z,31.70
2024-05-09T09:08:10.371Z,28.87
2024-05-09T09:10:37.594Z,30.07
2024-05-09T09:13:08.449Z,31.33
2024-05-09T09:15:46.209Z,31.33
2024-05-09T09:18:15.487Z,29.63
2024-05-09T09:20:41.933Z,28.73
2024-05-09T09:23:10.265Z,27.80
2024-05-09T09:25:39.141Z,27.30
2024-05-09T09:28:08.692Z,27.90
2024-05-09T09:30:38.649Z,27.40
2024-05-09T09:33:07.276Z,27.90
2024-05-09T09:35:35.203Z,30.23
2024-05-09T09:38:05.362Z,26.87
2024-05-09T09:40:35.921Z,28.47
2024-05-09T09:43:12.767Z,28.57
2024-05-09T09:45:41.615Z,28.33
2024-05-09T09:48:12.227Z,24.97
2024-05-09T09:50:39.755Z,25.13
2024-05-09T09:53:09.306Z,30.63
2024-05-09T09:55:36.949Z,27.30
2024-05-09T09:58:07.709Z,28.63
2024-05-09T10:00:35.989Z,24.03
2024-05-09T10:03:06.928Z,23.17
2024-05-09T10:05:33.830Z,26.03
2024-05-09T10:08:06.282Z,22.07
2024-05-09T10:10:34.611Z,18.07
2024-05-09T10:13:04.679Z,17.10
2024-05-09T10:15:44.563Z,19.67
2024-05-09T10:18:15.839Z,12.57
2024-05-09T10:20:42.625Z,16.03
2024-05-09T10:23:26.954Z,14.83
2024-05-09T10:25:57.349Z,15.97
2024-05-09T10:28:27.535Z,18.67
2024-05-09T10:31:02.551Z,16.60
2024-05-09T10:33:39.791Z,15.17
2024-05-09T10:36:11.046Z,15.47
2024-05-09T10:38:39.870Z,16.40
2024-05-09T10:41:06.259Z,18.57
2024-05-09T10:43:35.123Z,14.93
2024-05-09T10:46:01.407Z,16.70
2024-05-09T10:48:29.893Z,18.60
2024-05-09T10:50:58.389Z,25.93
2024-05-09T10:53:26.684Z,24.13
2024-05-09T10:55:56.162Z,23.60
2024-05-09T10:58:24.893Z,28.67
2024-05-09T11:00:51.379Z,22.70
2024-05-09T11:03:20.065Z,26.47
2024-05-09T11:05:46.872Z,28.27
2024-05-09T11:08:17.493Z,24.27
2024-05-09T11:10:44.107Z,25.47
2024-05-09T11:13:12.601Z,24.57
2024-05-09T11:15:39.623Z,25.77
2024-05-09T11:18:08.396Z,24.00
2024-05-09T11:20:35.567Z,24.63
2024-05-09T11:23:06.511Z,22.43
2024-05-09T11:25:34.792Z,23.27
2024-05-09T11:28:03.422Z,21.23
2024-05-09T11:30:34.100Z,19.60
2024-05-09T11:33:02.528Z,20.10
2024-05-09T11:35:28.822Z,22.47
2024-05-09T11:37:57.168Z,21.03
2024-05-09T11:40:25.926Z,23.07
2024-05-09T11:43:02.629Z,24.10
2024-05-09T11:45:29.144Z,18.70
2024-05-09T11:47:57.591Z,20.97
2024-05-09T11:50:29.952Z,21.93
2024-05-09T11:53:03.112Z,22.70
2024-05-09T11:55:30.049Z,18.83
2024-05-09T11:57:58.553Z,18.07
2024-05-09T12:00:34.095Z,21.57
2024-05-09T12:03:06.154Z,15.10
2024-05-09T12:05:33.361Z,16.77
2024-05-09T12:08:02.506Z,18.23
2024-05-09T12:10:33.508Z,18.93
2024-05-09T12:13:05.893Z,20.27
2024-05-09T12:15:37.945Z,14.83
2024-05-09T12:18:08.204Z,15.37
2024-05-09T12:20:37.949Z,19.23
2024-05-09T12:23:10.115Z,14.00
2024-05-09T12:25:37.565Z,14.97
2024-05-09T12:28:06.530Z,16.27
2024-05-09T12:30:39.838Z,15.77
2024-05-09T12:33:11.629Z,14.37
2024-05-09T12:35:39.177Z,16.00
2024-05-09T12:38:07.600Z,15.00
2024-05-09T12:40:37.294Z,19.07
2024-05-09T12:43:09.408Z,12.77
2024-05-09T12:45:39.273Z,12.20
2024-05-09T12:48:10.608Z,14.70
2024-05-09T12:50:38.146Z,13.10
2024-05-09T12:53:06.800Z,14.73
2024-05-09T12:55:41.143Z,11.03
2024-05-09T12:58:17.548Z,9.60
2024-05-09T13:00:46.814Z,11.57
2024-05-09T13:03:15.633Z,10.57
2024-05-09T13:05:43.923Z,14.17
2024-05-09T13:08:12.419Z,15.97
2024-05-09T13:10:38.752Z,13.57
2024-05-09T13:13:07.284Z,13.10
2024-05-09T13:15:33.940Z,13.00
2024-05-09T13:18:04.628Z,23.57
2024-05-09T13:20:34.435Z,16.47
2024-05-09T13:23:06.360Z,17.33
2024-05-09T13:25:33.913Z,17.80
2024-05-09T13:28:02.472Z,16.77
2024-05-09T13:30:37.297Z,17.03
2024-05-09T13:33:11.775Z,16.57
2024-05-09T13:35:40.157Z,22.03
2024-05-09T13:38:09.086Z,16.13
2024-05-09T13:40:36.468Z,16.07
2024-05-09T13:43:05.526Z,16.57
2024-05-09T13:45:32.071Z,20.23
2024-05-09T13:48:01.316Z,17.30
2024-05-09T13:50:34.427Z,19.80
2024-05-09T13:53:06.679Z,19.03
2024-05-09T13:55:34.391Z,16.47
2024-05-09T13:58:02.946Z,16.50
2024-05-09T14:00:41.977Z,11.70
2024-05-09T14:03:16.114Z,20.77
2024-05-09T14:05:45.311Z,15.47
2024-05-09T14:08:14.744Z,12.40
2024-05-09T14:10:43.037Z,15.03
2024-05-09T14:13:11.665Z,12.93
2024-05-09T14:15:38.665Z,18.63
2024-05-09T14:18:11.155Z,12.70
2024-05-09T14:20:39.410Z,11.70
2024-05-09T14:23:09.904Z,12.17
2024-05-09T14:25:41.240Z,12.43
2024-05-09T14:28:11.578Z,14.23
2024-05-09T14:30:39.191Z,9.00
2024-05-09T14:33:09.007Z,15.20
2024-05-09T14:35:36.698Z,15.47
2024-05-09T14:38:05.469Z,12.73
2024-05-09T14:40:41.120Z,12.83
2024-05-09T14:43:13.260Z,16.53
2024-05-09T14:45:40.568Z,15.37
2024-05-09T14:48:10.308Z,15.37
2024-05-09T14:50:39.296Z,14.83
2024-05-09T14:53:09.206Z,12.90
2024-05-09T14:55:38.377Z,14.37
2024-05-09T14:58:07.693Z,10.47
2024-05-09T15:00:38.473Z,13.67
2024-05-09T15:03:08.714Z,11.47
2024-05-09T15:05:35.125Z,10.63
2024-05-09T15:08:03.456Z,17.37
2024-05-09T15:10:34.779Z,14.93
2024-05-09T15:13:09.498Z,15.63
2024-05-09T15:15:37.698Z,22.43
2024-05-09T15:18:06.896Z,19.87
2024-05-09T15:20:36.209Z,21.90
2024-05-09T15:23:07.490Z,18.93
2024-05-09T15:25:34.061Z,20.10
2024-05-09T15:28:02.482Z,21.23
2024-05-09T15:30:33.372Z,17.70
2024-05-09T15:33:04.112Z,24.37
2024-05-09T15:35:31.044Z,16.63
2024-05-09T15:37:59.531Z,14.67
2024-05-09T15:40:35.286Z,12.87
2024-05-09T15:43:09.339Z,16.53
2024-05-09T15:45:39.658Z,13.27
2024-05-09T15:48:10.659Z,13.83
2024-05-09T15:50:40.749Z,17.87
2024-05-09T15:53:11.543Z,11.93
2024-05-09T15:55:38.738Z,19.13
2024-05-09T15:58:07.643Z,19.77
2024-05-09T16:00:38.779Z,20.10
2024-05-09T16:03:13.354Z,34.87
2024-05-09T16:05:41.576Z,18.83
2024-05-09T16:08:10.464Z,21.53
2024-05-09T16:10:40.012Z,16.60
2024-05-09T16:13:10.499Z,22.13
2024-05-09T16:15:40.424Z,19.07
2024-05-09T16:18:11.351Z,19.23
2024-05-09T16:20:41.116Z,19.63
2024-05-09T16:23:10.920Z,22.73
2024-05-09T16:25:38.326Z,24.43
2024-05-09T16:28:10.272Z,21.70
2024-05-09T16:30:37.355Z,15.70
2024-05-09T16:33:06.339Z,19.73
2024-05-09T16:35:35.254Z,16.70
2024-05-09T16:38:04.427Z,22.73
2024-05-09T16:40:37.806Z,17.50
2024-05-09T16:43:09.574Z,16.37
2024-05-09T16:45:36.457Z,20.83
2024-05-09T16:48:05.292Z,17.33
2024-05-09T16:50:33.968Z,19.13
2024-05-09T16:53:07.064Z,17.60
2024-05-09T16:55:34.180Z,17.03
2024-05-09T16:58:03.422Z,20.50
2024-05-09T17:00:39.360Z,14.43
2024-05-09T17:03:12.853Z,13.70
2024-05-09T17:05:40.659Z,12.20
2024-05-09T17:08:11.570Z,12.13
2024-05-09T17:10:37.992Z,15.43
2024-05-09T17:13:08.075Z,14.50
2024-05-09T17:15:37.715Z,12.80
2024-05-09T17:18:07.376Z,12.80
2024-05-09T17:20:36.461Z,10.60
2024-05-09T17:23:11.600Z,14.50
2024-05-09T17:25:40.065Z,11.67
2024-05-09T17:28:08.858Z,13.43
2024-05-09T17:30:39.935Z,11.87
2024-05-09T17:33:08.997Z,16.43
2024-05-09T17:35:38.434Z,15.20
2024-05-09T17:38:05.026Z,16.87
2024-05-09T17:40:36.225Z,15.60
2024-05-09T17:43:08.360Z,15.07
2024-05-09T17:45:38.554Z,13.40
2024-05-09T17:48:06.543Z,12.40
2024-05-09T17:50:37.257Z,15.80
2024-05-09T17:53:04.914Z,15.40
2024-05-09T17:55:33.733Z,14.67
2024-05-09T17:58:00.596Z,13.30
2024-05-09T18:00:37.944Z,18.17
2024-05-09T18:03:07.772Z,14.87
2024-05-09T18:05:37.259Z,14.17
2024-05-09T18:08:05.008Z,18.10
2024-05-09T18:10:37.423Z,17.03
2024-05-09T18:13:06.588Z,13.00
2024-05-09T18:15:37.740Z,20.13
2024-05-09T18:18:05.370Z,14.60
2024-05-09T18:20:41.851Z,13.40
2024-05-09T18:23:12.428Z,14.63
2024-05-09T18:25:40.848Z,17.50
2024-05-09T18:28:07.709Z,14.43
2024-05-09T18:30:38.423Z,10.37
2024-05-09T18:33:07.043Z,12.90
2024-05-09T18:35:37.046Z,16.00
2024-05-09T18:38:04.210Z,12.30
2024-05-09T18:40:35.960Z,13.20
2024-05-09T18:43:06.253Z,12.40
2024-05-09T18:45:38.937Z,13.07
2024-05-09T18:48:07.382Z,15.63
2024-05-09T18:50:39.709Z,12.50
2024-05-09T18:53:07.950Z,17.53
2024-05-09T18:55:36.442Z,11.10
2024-05-09T18:58:03.372Z,10.67
2024-05-09T19:00:36.229Z,10.93
2024-05-09T19:03:08.069Z,12.43
2024-05-09T19:05:37.465Z,11.40
2024-05-09T19:08:04.324Z,17.17
2024-05-09T19:10:35.092Z,12.47
2024-05-09T19:13:07.230Z,11.83
2024-05-09T19:15:40.236Z,12.60
2024-05-09T19:18:09.378Z,7.77
2024-05-09T19:20:38.326Z,13.13
2024-05-09T19:23:05.174Z,12.10
2024-05-09T19:25:34.244Z,9.07
2024-05-09T19:28:00.902Z,12.63
2024-05-09T19:30:37.578Z,12.63
2024-05-09T19:33:10.917Z,14.47
2024-05-09T19:35:40.398Z,10.67
2024-05-09T19:38:06.746Z,13.00
2024-05-09T19:40:35.872Z,13.50
2024-05-09T19:43:03.658Z,10.03
2024-05-09T19:45:33.264Z,13.00
2024-05-09T19:48:00.701Z,12.57
2024-05-09T19:50:39.319Z,14.33
2024-05-09T19:53:09.555Z,14.40
2024-05-09T19:55:38.143Z,14.97
2024-05-09T19:58:06.536Z,13.50
2024-05-09T20:00:38.544Z,14.40
2024-05-09T20:03:07.875Z,16.23
2024-05-09T20:05:39.264Z,11.40
2024-05-09T20:08:07.125Z,14.40
2024-05-09T20:10:36.588Z,19.17
2024-05-09T20:13:04.608Z,18.00
2024-05-09T20:15:35.203Z,19.33
2024-05-09T20:18:01.911Z,17.17
2024-05-09T20:20:37.444Z,16.77
2024-05-09T20:23:10.057Z,19.37
2024-05-09T20:25:38.548Z,13.57
2024-05-09T20:28:05.757Z,19.10
2024-05-09T20:30:35.890Z,17.00
2024-05-09T20:33:04.952Z,13.80
2024-05-09T20:35:35.035Z,18.07
2024-05-09T20:38:02.828Z,13.10
2024-05-09T20:40:37.686Z,13.50
2024-05-09T20:43:06.140Z,14.80
2024-05-09T20:45:35.259Z,13.30
2024-05-09T20:48:02.450Z,14.80
2024-05-09T20:50:37.831Z,16.20
2024-05-09T20:53:08.116Z,14.87
2024-05-09T20:55:38.679Z,16.60
2024-05-09T20:58:05.057Z,14.03
2024-05-09T21:00:39.661Z,18.57
2024-05-09T21:03:09.481Z,19.43
2024-05-09T21:05:38.543Z,17.33
2024-05-09T21:08:05.709Z,17.93
2024-05-09T21:10:34.706Z,16.70
2024-05-09T21:13:04.133Z,18.97
2024-05-09T21:15:33.060Z,15.57
2024-05-09T21:17:59.497Z,19.20
2024-05-09T21:20:31.767Z,14.07
2024-05-09T21:22:59.478Z,15.77
2024-05-09T21:25:27.889Z,17.80
2024-05-09T21:27:54.322Z,17.73
2024-05-09T21:32:54.277Z,14.37
2024-05-09T21:35:22.584Z,18.43
2024-05-09T21:37:48.837Z,16.20
2024-05-09T21:40:26.956Z,21.20
2024-05-09T21:42:59.976Z,20.23
2024-05-09T21:45:30.328Z,19.50
2024-05-09T21:47:56.795Z,16.93
2024-05-09T21:50:32.353Z,19.70
2024-05-09T21:53:05.460Z,20.30
2024-05-09T21:55:33.723Z,20.40
2024-05-09T21:58:00.134Z,17.90
2024-05-09T22:00:36.803Z,18.77
2024-05-09T22:03:05.532Z,21.97
2024-05-09T22:05:34.248Z,18.57
2024-05-09T22:08:00.859Z,18.17
2024-05-09T22:10:33.907Z,19.93
2024-05-09T22:13:02.434Z,22.53
2024-05-09T22:15:35.728Z,16.47
2024-05-09T22:18:02.952Z,18.23
2024-05-09T22:20:37.132Z,18.77
2024-05-09T22:23:05.541Z,19.07
2024-05-09T22:25:34.030Z,16.80
2024-05-09T22:28:00.934Z,17.37
2024-05-09T22:33:01.117Z,21.20
2024-05-09T22:35:29.456Z,18.10
2024-05-09T22:37:55.831Z,16.53
2024-05-09T22:40:33.046Z,17.30
2024-05-09T22:43:09.114Z,15.80
2024-05-09T22:45:37.483Z,14.43
2024-05-09T22:48:07.261Z,14.40
2024-05-09T22:50:35.993Z,15.10
2024-05-09T22:53:02.415Z,18.43
2024-05-09T22:55:30.627Z,20.03
2024-05-09T22:57:56.942Z,17.17
2024-05-09T23:00:31.413Z,17.60
2024-05-09T23:02:59.424Z,20.57
2024-05-09T23:05:30.030Z,19.97
2024-05-09T23:07:56.416Z,17.00
2024-05-09T23:10:31.714Z,21.37
2024-05-09T23:13:02.629Z,17.27
2024-05-09T23:15:31.041Z,20.70
2024-05-09T23:17:58.140Z,19.07
2024-05-09T23:20:35.950Z,18.30
2024-05-09T23:23:07.392Z,23.70
2024-05-09T23:25:35.673Z,16.53
2024-05-09T23:28:02.148Z,17.20
2024-05-09T23:30:37.430Z,19.23
2024-05-09T23:33:06.967Z,21.87
2024-05-09T23:35:35.376Z,20.60
2024-05-09T23:38:01.716Z,20.73
2024-05-09T23:43:01.532Z,18.60
2024-05-09T23:45:30.485Z,18.30
2024-05-09T23:47:56.950Z,20.00
2024-05-09T23:50:33.560Z,18.43
2024-05-09T23:53:03.005Z,20.73
2024-05-09T23:55:33.350Z,22.43
2024-05-09T23:57:59.833Z,21.40
